ハリファックス の空港の天気 - METARとTAF

ハリファックス国際空港 ( CYHZ / YHZ ) - カナダ ノバスコシア州ハリファックス
飛行場実況気象(Metar)
観測時間11/17 15:00 AST (11/17 19:00 UTC)
風向・風速西 6m/s 瞬間風速11m/s
視程10km以上
天気現象
全天の8割程度の雲 雲底高度 730m
気温0℃
湿度80%
気圧1011hPa
METARCYHZ 171900Z 28012G21KT 15SM BKN024 00/M03 A2983 RMK CU6 SLP110
過去の天気等 Google飛行場航空写真 Wunderground天気予報

過去48時間のMETAR

飛行場予報(TAF)
発表時間: 11/17 13:38 AST (11/17 17:38 UTC)
予報対象時間: 17日14時 AST ~ 18日14時 AST
風向・風速西北西 8m/s 瞬間風速 13m/s
視程10km以上
全天の8割程度の雲 雲底高度 910m
17日14時 AST ~ 17日17時 AST に一時的に
視程8050m
天気現象弱いしゅう雪
17日16時 AST ~ 17日17時 AST に徐々に
風向・風速西北西 5m/s 瞬間風速 10m/s
17日17時 AST から
風向・風速西 5m/s
視程10km以上
全天の4割程度の雲 雲底高度 910m
18日8時 AST から
風向・風速北西 3m/s
視程10km以上
少しの雲 雲底高度 910m
TAF CYHZ 171738Z 1718/1818 29015G25KT P6SM BKN030
TEMPO 1718/1721 5SM -SHSN
BECMG 1720/1721 29010G20KT
FM172100 26010KT P6SM SCT030
FM181200 32005KT P6SM FEW030 RMK NXT FCST BY 172100Z